< < Back
Terminal Aerodrome Forecast


Current Version              Previous Versions:   1  2  3  4  5  6  7  8  9  

Terminal Aerodrome Forecast

586
FTUS42 KCAE 280900 AAA
TAFAGS
TAF AMD
KAGS 280910Z 2809/2906 00000KT 3SM BR SKC
      TEMPO 2809/2812 1SM BR
     FM281600 VRB05KT P6SM SKC=

Latest METAR

430
SAUS70 KWBC 281100 RRA
MTRAGS
METAR KAGS 281053Z 00000KT 7SM CLR 14/14 A3002 RMK AO2 SLP164
T01390139


USA.gov is the U.S. government's official web portal to all federal, state and local government web resources and services.